Time;durP1;ratioP1;P1;durP2;ratioP2;P2;SDS_P1;SDS_P2;PMS_P1;PMS_P2;Temp;Humidity;BMP_temperature;BMP_pressure;BME280_temperature;BME280_humidity;BME280_pressure;Samples;Min_cycle;Max_cycle;Signal;HPM_P1;HPM_P2
2023/05/25 00:02:14;;;;;;;12.47;4.77;;;9.20;99.90;;;;;;5074000;28;20196;-73
2023/05/25 00:04:41;;;;;;;11.30;4.80;;;9.20;99.90;;;;;;5073443;28;20284;-73
2023/05/25 00:07:08;;;;;;;9.00;4.73;;;9.10;99.90;;;;;;5073461;28;20208;-73
2023/05/25 00:09:35;;;;;;;10.73;4.97;;;9.10;99.90;;;;;;5073519;28;20591;-73
2023/05/25 00:12:01;;;;;;;14.03;5.37;;;9.10;99.90;;;;;;5072995;28;20197;-73
2023/05/25 00:14:30;;;;;;;11.17;4.47;;;9.10;99.90;;;;;;5073219;28;20223;-73
2023/05/25 00:16:57;;;;;;;11.20;5.20;;;9.10;99.90;;;;;;5073266;28;20197;-73
2023/05/25 00:19:23;;;;;;;11.53;5.20;;;9.10;99.90;;;;;;5073239;28;20549;-73
2023/05/25 00:21:51;;;;;;;9.40;5.37;;;9.10;99.90;;;;;;5073152;28;20219;-73
2023/05/25 00:24:17;;;;;;;12.50;5.20;;;9.10;99.90;;;;;;5073139;28;20613;-73
2023/05/25 00:26:44;;;;;;;14.40;5.43;;;9.10;99.90;;;;;;5072941;28;20204;-73
2023/05/25 00:29:11;;;;;;;10.63;5.30;;;9.10;99.90;;;;;;5079874;28;20197;-73
2023/05/25 00:31:39;;;;;;;10.10;5.00;;;9.10;99.90;;;;;;5072902;28;20227;-73
2023/05/25 00:34:06;;;;;;;14.47;5.30;;;9.10;99.90;;;;;;5073199;28;20247;-73
2023/05/25 00:36:32;;;;;;;12.47;5.17;;;9.10;99.90;;;;;;5073157;28;20250;-73
2023/05/25 00:38:59;;;;;;;12.47;5.47;;;9.10;99.90;;;;;;5072898;28;20201;-73
2023/05/25 00:41:27;;;;;;;10.63;5.37;;;9.10;99.90;;;;;;5072756;28;20201;-73
2023/05/25 00:43:54;;;;;;;13.57;5.10;;;9.20;99.90;;;;;;5073025;28;20254;-73
2023/05/25 00:46:21;;;;;;;14.23;5.23;;;9.30;99.90;;;;;;5072875;28;20291;-73
2023/05/25 00:48:51;;;;;;;12.70;5.47;;;9.30;99.90;;;;;;5072613;28;20224;-73
2023/05/25 00:51:18;;;;;;;11.97;5.37;;;9.30;99.90;;;;;;5072487;28;20918;-73
2023/05/25 00:53:44;;;;;;;12.10;5.10;;;9.30;99.90;;;;;;5072604;28;20232;-73
2023/05/25 00:56:19;;;;;;;11.83;5.83;;;9.40;99.90;;;;;;5072872;28;20215;-73
2023/05/25 00:58:49;;;;;;;11.80;4.60;;;9.40;99.90;;;;;;5072594;28;20201;-73
2023/05/25 01:01:17;;;;;;;11.17;5.47;;;9.30;99.90;;;;;;5072416;28;20662;-73
2023/05/25 01:03:52;;;;;;;10.00;5.20;;;9.40;99.90;;;;;;5072679;28;20201;-73
2023/05/25 01:06:21;;;;;;;8.37;4.83;;;9.40;99.90;;;;;;5072700;28;20247;-72
2023/05/25 01:08:59;;;;;;;12.37;4.90;;;9.40;99.90;;;;;;5072592;28;20546;-72
2023/05/25 01:11:30;;;;;;;13.73;5.80;;;9.40;99.90;;;;;;5072391;28;20710;-73
2023/05/25 01:13:58;;;;;;;11.27;5.37;;;9.40;99.90;;;;;;5072501;28;20193;-72
2023/05/25 01:16:28;;;;;;;13.50;5.80;;;9.40;99.90;;;;;;5072415;28;20196;-72
2023/05/25 01:18:55;;;;;;;11.63;5.53;;;9.40;99.90;;;;;;5072772;28;20193;-73
2023/05/25 01:21:28;;;;;;;12.00;5.03;;;9.30;99.90;;;;;;5072687;28;20209;-73
2023/05/25 01:24:03;;;;;;;14.47;6.00;;;9.40;99.90;;;;;;5072315;28;20679;-71
2023/05/25 01:26:34;;;;;;;12.00;5.57;;;9.30;99.90;;;;;;5072528;28;20549;-73
2023/05/25 01:29:03;;;;;;;12.63;6.33;;;9.30;99.90;;;;;;5072348;28;20291;-72
2023/05/25 01:31:30;;;;;;;15.97;6.27;;;9.20;99.90;;;;;;5072658;28;20197;-73
2023/05/25 01:33:57;;;;;;;11.00;5.90;;;9.20;99.90;;;;;;5072504;28;20258;-72
2023/05/25 01:36:25;;;;;;;12.23;5.67;;;9.20;99.90;;;;;;5072428;28;20197;-73
2023/05/25 01:38:52;;;;;;;15.30;5.97;;;9.20;99.90;;;;;;5073040;28;20201;-72
2023/05/25 01:41:19;;;;;;;9.47;5.70;;;9.20;99.90;;;;;;5073200;28;20197;-73
2023/05/25 01:43:46;;;;;;;15.83;6.43;;;9.20;99.90;;;;;;5075923;28;20656;-73
2023/05/25 01:46:19;;;;;;;13.63;6.17;;;9.10;99.90;;;;;;5076348;28;20250;-72
2023/05/25 01:48:55;;;;;;;14.80;5.97;;;9.10;99.90;;;;;;5076124;28;20323;-73
2023/05/25 01:51:30;;;;;;;14.03;5.83;;;9.10;99.90;;;;;;5076052;28;20249;-73
2023/05/25 01:54:00;;;;;;;13.70;6.93;;;9.00;99.90;;;;;;5075736;28;20274;-72
2023/05/25 01:56:30;;;;;;;13.53;6.03;;;9.00;99.90;;;;;;5076012;28;20285;-73
2023/05/25 01:59:01;;;;;;;11.70;5.63;;;8.90;99.90;;;;;;5075989;28;20230;-73
2023/05/25 02:01:28;;;;;;;20.03;7.03;;;8.90;99.90;;;;;;5075730;28;20255;-73
2023/05/25 02:03:56;;;;;;;13.13;6.20;;;8.80;99.90;;;;;;5075949;28;20219;-72
2023/05/25 02:06:23;;;;;;;14.07;6.43;;;8.80;99.90;;;;;;5075633;28;20730;-72
2023/05/25 02:08:51;;;;;;;11.07;6.07;;;8.80;99.90;;;;;;5075578;28;20205;-72
2023/05/25 02:11:17;;;;;;;13.90;6.13;;;8.80;99.90;;;;;;5075597;28;20661;-72
2023/05/25 02:13:44;;;;;;;12.90;6.00;;;8.80;99.90;;;;;;5075457;28;20201;-73
2023/05/25 02:16:10;;;;;;;12.67;6.17;;;8.70;99.90;;;;;;5075322;28;20684;-74
2023/05/25 02:18:37;;;;;;;12.90;6.50;;;8.80;99.90;;;;;;5075536;28;20205;-72
2023/05/25 02:21:04;;;;;;;12.03;5.90;;;8.80;99.90;;;;;;5075185;28;20596;-72
2023/05/25 02:23:30;;;;;;;12.63;6.27;;;8.70;99.90;;;;;;5075130;28;20197;-72
2023/05/25 02:25:58;;;;;;;10.93;5.80;;;8.70;99.90;;;;;;5075381;28;20201;-72
2023/05/25 02:28:25;;;;;;;15.70;6.70;;;8.60;99.90;;;;;;5075479;28;20201;-72
2023/05/25 02:30:51;;;;;;;14.37;7.13;;;8.60;99.90;;;;;;5075216;28;20639;-72
2023/05/25 02:33:19;;;;;;;11.40;6.13;;;8.50;99.90;;;;;;5075301;28;20258;-72
2023/05/25 02:35:45;;;;;;;11.57;6.33;;;8.50;99.90;;;;;;5075017;28;20231;-73
2023/05/25 02:38:12;;;;;;;8.70;6.03;;;8.30;99.90;;;;;;5075373;28;20197;-72
2023/05/25 02:40:39;;;;;;;15.50;6.03;;;8.30;99.90;;;;;;5075279;28;20197;-72
2023/05/25 02:43:06;;;;;;;16.90;6.80;;;8.30;99.90;;;;;;5075223;28;20193;-73
2023/05/25 02:45:33;;;;;;;10.93;6.27;;;8.20;99.90;;;;;;5074628;28;20254;-72
2023/05/25 02:48:00;;;;;;;17.20;7.03;;;8.10;99.90;;;;;;5074985;28;20641;-72
2023/05/25 02:50:26;;;;;;;11.77;6.60;;;8.10;99.90;;;;;;5074717;28;20247;-72
2023/05/25 02:52:53;;;;;;;16.73;7.10;;;8.00;99.90;;;;;;5073894;28;20561;-73
2023/05/25 02:55:20;;;;;;;13.43;7.13;;;8.00;99.90;;;;;;5074655;28;20247;-72
2023/05/25 02:57:46;;;;;;;16.93;7.50;;;8.00;99.90;;;;;;5074746;28;20196;-72
2023/05/25 03:00:16;;;;;;;15.60;7.47;;;8.00;99.90;;;;;;5074572;28;20201;-72
2023/05/25 03:02:45;;;;;;;14.00;6.73;;;7.90;99.90;;;;;;5074418;28;20211;-72
2023/05/25 03:05:12;;;;;;;11.20;7.30;;;7.80;99.90;;;;;;5074319;28;20653;-72
2023/05/25 03:07:38;;;;;;;14.87;7.60;;;7.80;99.90;;;;;;5074316;28;20201;-72
2023/05/25 03:10:06;;;;;;;16.23;7.17;;;7.80;99.90;;;;;;5074654;28;20702;-72
2023/05/25 03:12:32;;;;;;;17.87;7.57;;;7.70;99.90;;;;;;5074363;28;20419;-72
2023/05/25 03:14:59;;;;;;;14.97;6.90;;;7.70;99.90;;;;;;5074392;28;20267;-72
2023/05/25 03:17:27;;;;;;;12.97;7.23;;;7.70;99.90;;;;;;5074293;28;20197;-72
2023/05/25 03:19:53;;;;;;;16.27;7.57;;;7.50;99.90;;;;;;5074316;28;20201;-72
2023/05/25 03:22:20;;;;;;;12.27;7.03;;;7.50;99.90;;;;;;5074333;28;20541;-72
2023/05/25 03:24:48;;;;;;;22.67;8.13;;;7.50;99.90;;;;;;5074278;28;20250;-72
2023/05/25 03:27:14;;;;;;;14.97;7.53;;;7.50;99.90;;;;;;5073924;28;20193;-72
2023/05/25 03:29:41;;;;;;;16.57;8.43;;;7.50;99.90;;;;;;5073837;28;20197;-72
2023/05/25 03:32:08;;;;;;;12.53;7.30;;;7.50;99.90;;;;;;5073909;28;20199;-72
2023/05/25 03:34:36;;;;;;;14.27;7.10;;;7.40;99.90;;;;;;5073942;28;20252;-72
2023/05/25 03:37:03;;;;;;;17.67;7.87;;;7.40;99.90;;;;;;5073906;28;20207;-72
2023/05/25 03:39:29;;;;;;;19.40;8.47;;;7.50;99.90;;;;;;5073977;28;20197;-71
2023/05/25 03:41:56;;;;;;;18.40;8.17;;;7.40;99.90;;;;;;5073784;28;20209;-72
2023/05/25 03:44:23;;;;;;;15.23;7.53;;;7.50;99.90;;;;;;5073645;28;20283;-72
2023/05/25 03:46:50;;;;;;;18.17;8.97;;;7.50;99.90;;;;;;5073948;28;20204;-73
2023/05/25 03:49:17;;;;;;;16.53;8.10;;;7.40;99.90;;;;;;5073729;28;20603;-72
2023/05/25 03:51:44;;;;;;;16.77;7.73;;;7.50;99.90;;;;;;5073241;28;20200;-72
2023/05/25 03:54:11;;;;;;;18.93;7.87;;;7.50;99.90;;;;;;5073691;28;20229;-72
2023/05/25 03:56:38;;;;;;;17.93;8.60;;;7.50;99.90;;;;;;5073504;28;20286;-72
2023/05/25 03:59:05;;;;;;;16.63;8.03;;;7.50;99.90;;;;;;5073402;28;20666;-72
2023/05/25 04:01:31;;;;;;;14.23;8.13;;;7.60;99.90;;;;;;5075394;28;20545;-72
2023/05/25 04:03:58;;;;;;;16.33;7.60;;;7.50;99.90;;;;;;5078500;28;20231;-72
2023/05/25 04:06:25;;;;;;;15.30;7.93;;;7.60;99.90;;;;;;5073609;28;20647;-72
2023/05/25 04:08:53;;;;;;;15.63;7.50;;;7.60;99.90;;;;;;5073568;28;20204;-73
2023/05/25 04:11:19;;;;;;;19.73;8.53;;;7.80;99.90;;;;;;5073439;28;20266;-72
2023/05/25 04:13:46;;;;;;;18.53;8.60;;;7.80;99.90;;;;;;5073054;28;20197;-72
2023/05/25 04:16:13;;;;;;;14.80;8.00;;;7.90;99.90;;;;;;5073048;28;20301;-73
2023/05/25 04:18:40;;;;;;;18.10;8.00;;;7.90;99.90;;;;;;5073370;28;20200;-72
2023/05/25 04:21:06;;;;;;;14.07;7.47;;;7.90;99.90;;;;;;5073152;28;20197;-72
2023/05/25 04:23:33;;;;;;;16.53;8.00;;;8.00;99.90;;;;;;5073353;28;20254;-72
2023/05/25 04:26:02;;;;;;;14.03;7.80;;;8.00;99.90;;;;;;5072869;28;20284;-72
2023/05/25 04:28:28;;;;;;;17.57;7.70;;;8.10;99.90;;;;;;5072928;28;20250;-72
2023/05/25 04:30:56;;;;;;;13.17;7.20;;;8.10;99.90;;;;;;5073141;28;20193;-72
2023/05/25 04:33:23;;;;;;;13.73;7.07;;;8.20;99.90;;;;;;5073017;28;20196;-72
2023/05/25 04:35:50;;;;;;;15.07;7.77;;;8.20;99.90;;;;;;5072919;28;20224;-72
2023/05/25 04:38:17;;;;;;;12.40;7.00;;;8.30;99.90;;;;;;5072928;28;20197;-72
2023/05/25 04:40:45;;;;;;;14.97;7.50;;;8.30;99.90;;;;;;5072777;28;20201;-72
2023/05/25 04:43:17;;;;;;;16.50;7.40;;;8.40;99.90;;;;;;5073039;28;20225;-72
2023/05/25 04:45:44;;;;;;;15.43;7.30;;;8.40;99.90;;;;;;5072750;28;20209;-72
2023/05/25 04:48:11;;;;;;;14.13;7.77;;;8.50;99.90;;;;;;5072611;28;20653;-72
2023/05/25 04:50:39;;;;;;;13.90;6.93;;;8.60;99.90;;;;;;5072688;28;20243;-73
2023/05/25 04:53:06;;;;;;;16.33;7.97;;;8.60;99.90;;;;;;5072414;28;20584;-72
2023/05/25 04:55:32;;;;;;;18.13;8.10;;;8.70;99.90;;;;;;5072560;28;20221;-72
2023/05/25 04:57:59;;;;;;;18.23;7.43;;;8.80;99.90;;;;;;5072732;28;20201;-72
2023/05/25 05:00:27;;;;;;;15.53;7.20;;;8.90;99.90;;;;;;5072579;28;20193;-72
2023/05/25 05:02:55;;;;;;;13.43;6.83;;;9.00;99.90;;;;;;5072429;28;20205;-72
2023/05/25 05:05:22;;;;;;;12.70;8.13;;;9.10;99.90;;;;;;5072477;28;20262;-72
2023/05/25 05:07:48;;;;;;;17.30;7.90;;;9.20;99.90;;;;;;5072384;28;20251;-72
2023/05/25 05:10:16;;;;;;;18.23;7.77;;;9.20;99.90;;;;;;5072438;28;20255;-72
2023/05/25 05:12:43;;;;;;;17.37;8.07;;;9.30;99.90;;;;;;5072533;28;20399;-72
2023/05/25 05:15:10;;;;;;;17.40;7.97;;;9.40;99.90;;;;;;5072136;28;20649;-72
2023/05/25 05:17:38;;;;;;;16.00;6.77;;;9.50;99.90;;;;;;5078757;28;20253;-73
2023/05/25 05:20:06;;;;;;;15.73;7.40;;;9.50;99.90;;;;;;5078948;28;20250;-72
2023/05/25 05:22:33;;;;;;;14.00;7.30;;;9.60;99.90;;;;;;5079173;28;20235;-72
2023/05/25 05:25:00;;;;;;;14.93;7.47;;;9.70;99.90;;;;;;5079291;28;20246;-73
2023/05/25 05:27:26;;;;;;;15.90;8.27;;;9.70;99.90;;;;;;5079174;28;20291;-73
2023/05/25 05:29:53;;;;;;;12.03;7.67;;;9.90;99.90;;;;;;5078978;28;20251;-73
2023/05/25 05:32:19;;;;;;;13.87;8.17;;;9.90;99.90;;;;;;5079075;28;20196;-73
2023/05/25 05:34:48;;;;;;;13.80;7.80;;;10.00;99.90;;;;;;5079137;28;20246;-73
2023/05/25 05:37:14;;;;;;;16.03;8.03;;;10.10;99.90;;;;;;5078703;28;20228;-73
2023/05/25 05:39:41;;;;;;;14.90;8.00;;;10.10;99.90;;;;;;5078856;28;20203;-73
2023/05/25 05:42:08;;;;;;;13.80;7.43;;;10.30;99.90;;;;;;5078398;28;20197;-73
2023/05/25 05:44:34;;;;;;;17.93;7.90;;;10.30;99.90;;;;;;5078509;28;20296;-73
2023/05/25 05:47:02;;;;;;;13.53;7.53;;;10.40;99.90;;;;;;5078847;28;20247;-72
2023/05/25 05:49:29;;;;;;;14.00;7.20;;;10.40;99.90;;;;;;5078809;28;20671;-72
2023/05/25 05:51:57;;;;;;;12.50;7.47;;;10.50;99.90;;;;;;5078872;28;20201;-73
2023/05/25 05:54:26;;;;;;;14.40;7.80;;;10.60;99.90;;;;;;5078722;28;20232;-73
2023/05/25 05:56:53;;;;;;;17.53;7.30;;;10.60;99.90;;;;;;5078636;28;20225;-72
2023/05/25 05:59:21;;;;;;;13.87;6.93;;;10.70;99.90;;;;;;5081402;28;20600;-93
2023/05/25 06:01:48;;;;;;;17.87;7.17;;;10.90;99.90;;;;;;5084084;28;20201;-92
2023/05/25 06:04:17;;;;;;;15.13;7.37;;;11.00;99.90;;;;;;5092001;28;20201;-86
2023/05/25 06:06:44;;;;;;;12.27;7.27;;;11.10;99.90;;;;;;5091369;28;20209;-91
2023/05/25 06:09:12;;;;;;;13.40;7.20;;;11.20;99.90;;;;;;5088641;28;20197;-91
2023/05/25 06:11:39;;;;;;;13.80;7.07;;;11.30;99.90;;;;;;5083229;28;20197;-91
2023/05/25 06:14:06;;;;;;;16.03;7.57;;;11.30;99.90;;;;;;5083506;28;20243;-92
2023/05/25 06:16:33;;;;;;;13.13;7.30;;;11.50;99.90;;;;;;5081403;28;20587;-72
2023/05/25 06:19:00;;;;;;;12.30;6.73;;;11.70;99.90;;;;;;5078976;28;20607;-73
2023/05/25 06:21:26;;;;;;;14.33;7.23;;;11.90;99.90;;;;;;5078809;28;20272;-74
2023/05/25 06:23:53;;;;;;;13.40;7.10;;;12.20;99.90;;;;;;5078547;28;20220;-74
2023/05/25 06:26:22;;;;;;;12.70;7.27;;;12.50;99.90;;;;;;5078569;28;20201;-73
2023/05/25 06:28:49;;;;;;;12.80;7.10;;;12.70;99.90;;;;;;5074802;28;20238;-73
2023/05/25 06:31:16;;;;;;;13.73;7.73;;;12.90;99.90;;;;;;5075372;28;20314;-73
2023/05/25 06:33:42;;;;;;;11.43;6.43;;;13.10;99.90;;;;;;5075576;28;20652;-73
2023/05/25 06:36:09;;;;;;;13.30;7.13;;;13.10;99.90;;;;;;5075467;28;20224;-73
2023/05/25 06:38:36;;;;;;;13.40;6.60;;;13.40;99.90;;;;;;5075467;28;20189;-73
2023/05/25 06:41:04;;;;;;;14.57;7.03;;;13.60;99.90;;;;;;5075617;28;20282;-73
2023/05/25 06:43:32;;;;;;;14.47;6.80;;;13.70;99.90;;;;;;5074583;28;20573;-74
2023/05/25 06:45:58;;;;;;;12.97;7.33;;;13.90;99.90;;;;;;5075553;28;20205;-73
2023/05/25 06:48:25;;;;;;;16.97;7.17;;;14.10;99.90;;;;;;5075357;28;20250;-73
2023/05/25 06:50:52;;;;;;;15.90;6.90;;;14.30;99.90;;;;;;5075069;28;20201;-74
2023/05/25 06:53:18;;;;;;;10.23;6.50;;;14.30;99.90;;;;;;5075005;28;20278;-73
2023/05/25 06:55:45;;;;;;;11.98;6.10;;;14.60;99.90;;;;;;5074928;28;20201;-73
2023/05/25 06:58:12;;;;;;;12.68;6.40;;;14.60;99.90;;;;;;5074671;28;20254;-73
2023/05/25 07:00:40;;;;;;;17.00;7.13;;;14.50;99.90;;;;;;5074970;28;20232;-73
2023/05/25 07:03:06;;;;;;;13.60;6.93;;;14.60;99.90;;;;;;5075103;28;20266;-73
2023/05/25 07:05:33;;;;;;;13.40;7.13;;;14.60;99.90;;;;;;5074959;28;20201;-73
2023/05/25 07:07:59;;;;;;;17.33;7.22;;;14.60;99.90;;;;;;5074716;28;20255;-73
2023/05/25 07:10:26;;;;;;;15.50;8.02;;;14.70;99.90;;;;;;5074735;28;20197;-73
2023/05/25 07:12:53;;;;;;;17.10;8.23;;;14.70;99.90;;;;;;5071610;28;20633;-73
2023/05/25 07:15:20;;;;;;;15.93;8.25;;;14.80;99.90;;;;;;5071958;28;20193;-73
2023/05/25 07:17:48;;;;;;;12.95;6.93;;;14.80;99.90;;;;;;5074061;28;20216;-73
2023/05/25 07:20:15;;;;;;;15.65;8.40;;;14.70;99.90;;;;;;5074314;28;20239;-74
2023/05/25 07:22:42;;;;;;;12.60;7.55;;;14.80;99.90;;;;;;5074271;28;20255;-73
2023/05/25 07:25:09;;;;;;;12.98;8.10;;;14.50;99.90;;;;;;5073621;28;20216;-73
2023/05/25 07:27:36;;;;;;;13.65;7.88;;;14.50;99.90;;;;;;5071340;28;20258;-73
2023/05/25 07:30:03;;;;;;;14.13;7.43;;;14.40;99.90;;;;;;5073315;28;20593;-74
2023/05/25 07:32:29;;;;;;;11.90;6.30;;;14.50;99.90;;;;;;5073894;28;20238;-75
2023/05/25 07:34:57;;;;;;;14.02;7.72;;;14.40;99.90;;;;;;5080930;28;20526;-75
2023/05/25 07:37:24;;;;;;;15.43;7.18;;;14.40;99.90;;;;;;5073823;28;20272;-73
2023/05/25 07:39:50;;;;;;;11.65;7.30;;;14.50;99.90;;;;;;5070684;28;20645;-74
2023/05/25 07:42:19;;;;;;;14.43;7.78;;;14.70;99.90;;;;;;5074061;28;20189;-72
2023/05/25 07:44:46;;;;;;;11.65;7.60;;;15.00;99.90;;;;;;5074040;28;20201;-71
2023/05/25 07:47:13;;;;;;;16.53;8.10;;;15.10;99.90;;;;;;5073451;28;20255;-72
2023/05/25 07:49:39;;;;;;;13.50;7.40;;;15.20;99.90;;;;;;5073909;28;20193;-72
2023/05/25 07:52:07;;;;;;;14.98;7.57;;;15.30;99.90;;;;;;5073598;28;20189;-72
2023/05/25 07:54:38;;;;;;;13.82;7.68;;;15.50;99.90;;;;;;5073663;28;20228;-75
2023/05/25 07:57:05;;;;;;;17.98;7.85;;;15.60;99.90;;;;;;5073525;28;20232;-71
2023/05/25 07:59:32;;;;;;;18.25;8.73;;;15.80;99.90;;;;;;5073658;28;20251;-71
2023/05/25 08:01:58;;;;;;;15.15;7.72;;;15.90;99.90;;;;;;5073574;28;20204;-71
2023/05/25 08:04:25;;;;;;;14.52;7.40;;;15.90;99.90;;;;;;5073772;28;20227;-71
2023/05/25 08:06:52;;;;;;;14.93;7.97;;;16.10;99.90;;;;;;5073394;28;20264;-71
2023/05/25 08:09:20;;;;;;;19.88;8.27;;;16.20;99.90;;;;;;5073393;28;20197;-73
2023/05/25 08:11:46;;;;;;;14.27;7.10;;;16.40;99.90;;;;;;5073302;28;20196;-70
2023/05/25 08:14:13;;;;;;;12.60;7.20;;;16.50;99.90;;;;;;5073146;28;20197;-73
2023/05/25 08:16:39;;;;;;;13.82;7.22;;;16.70;99.90;;;;;;5073182;28;20619;-74
2023/05/25 08:19:06;;;;;;;17.90;7.97;;;16.80;99.90;;;;;;5073124;28;20653;-74
2023/05/25 08:21:33;;;;;;;11.93;6.35;;;16.90;99.90;;;;;;5071269;28;20246;-75
2023/05/25 08:24:02;;;;;;;11.35;6.13;;;17.10;99.90;;;;;;5073900;28;20200;-75
2023/05/25 08:26:30;;;;;;;13.45;7.00;;;17.30;99.90;;;;;;5072138;28;20300;-75
2023/05/25 08:28:57;;;;;;;11.65;6.55;;;17.40;99.00;;;;;;5071457;28;20197;-73
2023/05/25 08:31:24;;;;;;;15.43;7.15;;;17.50;98.40;;;;;;5071409;28;20726;-74
2023/05/25 08:33:51;;;;;;;13.35;6.70;;;17.50;98.50;;;;;;5072972;28;20185;-73
2023/05/25 08:36:17;;;;;;;13.85;6.30;;;17.80;98.80;;;;;;5072880;28;20254;-73
2023/05/25 08:38:44;;;;;;;13.23;6.70;;;17.90;98.10;;;;;;5072989;28;20197;-74
2023/05/25 08:41:13;;;;;;;11.50;6.72;;;17.70;97.60;;;;;;5072991;28;20203;-73
2023/05/25 08:43:42;;;;;;;13.95;7.05;;;17.90;97.70;;;;;;5072985;28;20199;-74
2023/05/25 08:46:09;;;;;;;16.05;6.55;;;18.00;96.80;;;;;;5072740;28;20197;-73
2023/05/25 08:48:37;;;;;;;14.25;6.20;;;18.40;97.10;;;;;;5072966;28;20200;-74
2023/05/25 08:51:06;;;;;;;13.82;6.43;;;18.50;95.60;;;;;;5072286;28;20201;-73
2023/05/25 08:53:36;;;;;;;13.65;6.72;;;18.20;96.60;;;;;;5071613;28;20233;-73
2023/05/25 08:56:07;;;;;;;13.85;6.97;;;18.50;95.90;;;;;;5071405;28;20284;-77
2023/05/25 08:58:39;;;;;;;12.65;6.78;;;18.80;95.10;;;;;;5072598;28;20229;-76
2023/05/25 09:01:10;;;;;;;18.20;6.50;;;19.10;94.90;;;;;;5072709;28;20193;-77
2023/05/25 09:03:39;;;;;;;10.40;6.20;;;19.50;94.00;;;;;;5071164;28;20205;-73
2023/05/25 09:06:05;;;;;;;13.52;5.93;;;19.40;92.80;;;;;;5072333;28;20197;-75
2023/05/25 09:08:32;;;;;;;14.25;6.78;;;19.50;92.60;;;;;;5072185;28;20200;-73
2023/05/25 09:11:01;;;;;;;32.40;22.33;;;19.80;91.70;;;;;;5072428;28;20722;-75
2023/05/25 09:13:28;;;;;;;19.15;11.73;;;20.00;91.20;;;;;;5072414;28;20201;-76
2023/05/25 09:15:55;;;;;;;26.02;16.38;;;20.10;91.10;;;;;;5071788;28;20196;-76
2023/05/25 09:18:23;;;;;;;11.48;6.95;;;20.20;89.70;;;;;;5072678;28;20274;-77
2023/05/25 09:20:50;;;;;;;10.00;6.35;;;20.20;89.10;;;;;;5072336;28;20205;-76
2023/05/25 09:23:17;;;;;;;9.65;6.00;;;20.50;89.70;;;;;;5071996;28;20718;-75
2023/05/25 09:25:45;;;;;;;11.68;5.70;;;20.70;87.10;;;;;;5072382;28;20201;-75
2023/05/25 09:28:12;;;;;;;11.45;6.22;;;20.50;85.90;;;;;;5072377;28;20197;-74
2023/05/25 09:30:39;;;;;;;10.48;6.18;;;20.80;85.30;;;;;;5072594;28;20653;-74
2023/05/25 09:33:12;;;;;;;13.95;5.95;;;20.70;86.50;;;;;;5072614;28;20258;-74
2023/05/25 09:35:40;;;;;;;11.50;5.95;;;20.70;86.00;;;;;;5072770;28;20246;-74
2023/05/25 09:38:07;;;;;;;8.93;5.40;;;21.00;84.90;;;;;;5052243;28;20231;-75
2023/05/25 09:40:34;;;;;;;8.75;5.85;;;21.10;84.90;;;;;;5052239;28;20256;-75
2023/05/25 09:43:02;;;;;;;9.60;6.25;;;21.40;82.10;;;;;;5052607;28;20198;-75
2023/05/25 09:45:29;;;;;;;12.70;6.75;;;21.80;82.10;;;;;;5052334;28;20212;-75
2023/05/25 09:47:56;;;;;;;11.68;6.85;;;21.90;80.80;;;;;;5052503;28;20206;-74
2023/05/25 09:50:23;;;;;;;11.70;6.28;;;21.80;77.40;;;;;;5052413;28;20197;-76
2023/05/25 09:52:54;;;;;;;11.23;5.90;;;20.70;78.50;;;;;;5051809;28;20705;-74
2023/05/25 09:55:21;;;;;;;13.98;6.43;;;21.50;79.30;;;;;;5052281;28;20197;-75
2023/05/25 09:57:53;;;;;;;8.18;5.70;;;22.00;78.30;;;;;;5052270;28;20692;-73
2023/05/25 10:00:20;;;;;;;8.95;5.80;;;22.40;76.70;;;;;;5052300;28;20202;-78
2023/05/25 10:02:46;;;;;;;12.43;6.40;;;22.90;74.60;;;;;;5054240;28;20197;-73
2023/05/25 10:05:13;;;;;;;8.20;5.78;;;23.00;71.60;;;;;;5056056;28;20592;-75
2023/05/25 10:07:40;;;;;;;13.30;5.93;;;23.40;71.50;;;;;;5055613;28;20201;-77
2023/05/25 10:10:11;;;;;;;11.02;6.10;;;23.40;69.70;;;;;;5059010;28;21495;-77
2023/05/25 10:12:41;;;;;;;10.85;6.05;;;23.60;68.70;;;;;;5085946;28;20196;-75
2023/05/25 10:15:11;;;;;;;9.40;5.50;;;23.80;66.60;;;;;;5076289;28;20201;-77
2023/05/25 10:17:43;;;;;;;10.88;5.78;;;23.70;66.10;;;;;;5073039;28;20684;-76
2023/05/25 10:20:11;;;;;;;9.82;5.70;;;24.00;67.10;;;;;;5075152;28;20197;-78
2023/05/25 10:22:44;;;;;;;9.07;5.55;;;24.50;64.70;;;;;;5076223;28;20201;-81
2023/05/25 10:25:17;;;;;;;9.45;5.45;;;24.80;63.10;;;;;;5075877;28;20247;-74
2023/05/25 10:27:48;;;;;;;8.73;5.22;;;24.60;62.00;;;;;;5075839;28;20193;-75
2023/05/25 10:30:15;;;;;;;8.15;5.70;;;24.90;61.70;;;;;;5075315;28;20710;-77
2023/05/25 10:32:44;;;;;;;9.27;5.75;;;24.80;60.10;;;;;;5075387;28;20240;-77
2023/05/25 10:35:12;;;;;;;12.70;5.90;;;25.20;58.50;;;;;;5074999;28;20204;-73
2023/05/25 10:37:40;;;;;;;13.05;6.35;;;23.50;60.40;;;;;;5075162;28;20621;-77
2023/05/25 10:40:08;;;;;;;9.18;5.70;;;24.20;60.60;;;;;;5078827;28;20536;-80
2023/05/25 10:42:37;;;;;;;10.32;5.80;;;25.30;59.40;;;;;;5079011;28;20209;-80
2023/05/25 10:45:06;;;;;;;7.25;4.57;;;25.80;56.90;;;;;;5074702;28;20197;-81
2023/05/25 10:47:33;;;;;;;8.32;5.40;;;24.90;57.10;;;;;;5075334;28;20548;-76
2023/05/25 10:50:01;;;;;;;11.32;5.35;;;25.50;56.50;;;;;;5075994;28;20251;-79
2023/05/25 10:52:29;;;;;;;10.95;4.70;;;25.30;54.90;;;;;;5075453;28;20292;-83
2023/05/25 10:54:57;;;;;;;10.02;5.50;;;25.90;55.90;;;;;;5075423;28;20680;-78
2023/05/25 10:57:24;;;;;;;8.13;5.90;;;26.60;52.70;;;;;;5075230;28;20217;-78
2023/05/25 10:59:58;;;;;;;9.27;5.35;;;26.10;52.00;;;;;;5074975;28;20207;-79
2023/05/25 11:02:27;;;;;;;8.57;5.30;;;27.00;52.60;;;;;;5075176;28;20205;-81
2023/05/25 11:05:34;;;;;;;7.72;5.05;;;28.20;49.50;;;;;;5075250;28;20197;-73
2023/05/25 11:08:02;;;;;;;9.15;4.75;;;27.80;48.60;;;;;;5074330;28;20261;-75
2023/05/25 11:10:51;;;;;;;7.85;5.28;;;28.70;47.40;;;;;;5074013;28;20571;-79
2023/05/25 11:13:34;;;;;;;9.00;5.13;;;28.30;45.70;;;;;;5074371;28;20215;-80
2023/05/25 11:16:18;;;;;;;10.00;5.78;;;29.40;44.80;;;;;;5074682;28;20250;-81
2023/05/25 11:18:48;;;;;;;11.77;4.85;;;29.40;41.90;;;;;;5074189;28;20230;-76
2023/05/25 11:21:21;;;;;;;8.77;4.82;;;29.30;42.10;;;;;;5074851;28;20246;-75
2023/05/25 11:23:56;;;;;;;9.95;5.03;;;29.50;41.10;;;;;;5074485;28;20211;-75
2023/05/25 11:26:24;;;;;;;6.95;4.80;;;30.60;38.90;;;;;;5074462;28;20196;-75
2023/05/25 11:28:52;;;;;;;6.80;4.45;;;30.20;37.50;;;;;;5074252;28;20712;-75
2023/05/25 11:31:28;;;;;;;7.90;5.28;;;29.00;40.40;;;;;;5074270;28;20196;-76
2023/05/25 11:33:57;;;;;;;7.70;4.68;;;30.00;37.90;;;;;;5074279;28;20290;-75
2023/05/25 11:36:25;;;;;;;9.32;5.13;;;30.50;36.60;;;;;;5074404;28;20280;-75
2023/05/25 11:38:53;;;;;;;7.93;4.80;;;31.10;34.90;;;;;;5073962;28;20702;-75
2023/05/25 11:41:20;;;;;;;8.75;5.40;;;31.30;34.50;;;;;;5074227;28;20249;-75
2023/05/25 11:43:48;;;;;;;9.13;5.30;;;31.30;33.70;;;;;;5073920;28;20594;-75
2023/05/25 11:46:17;;;;;;;8.25;5.22;;;32.10;32.30;;;;;;5073673;28;20219;-75
2023/05/25 11:48:45;;;;;;;7.72;4.80;;;28.60;32.40;;;;;;5073778;28;20220;-75
2023/05/25 11:51:12;;;;;;;7.60;4.95;;;30.30;34.60;;;;;;5073915;28;20200;-78
2023/05/25 11:53:44;;;;;;;9.30;5.07;;;31.70;32.40;;;;;;5073393;28;20277;-76
2023/05/25 11:56:12;;;;;;;7.65;4.80;;;29.90;31.30;;;;;;5072807;28;20196;-77
2023/05/25 11:58:39;;;;;;;8.60;5.20;;;29.90;32.70;;;;;;5073148;28;20228;-75
2023/05/25 12:01:24;;;;;;;7.78;4.90;;;28.40;33.40;;;;;;5073685;28;20200;-76
2023/05/25 12:03:54;;;;;;;10.20;5.20;;;29.30;33.00;;;;;;5073806;28;20197;-76
2023/05/25 12:06:26;;;;;;;7.00;4.88;;;31.00;33.20;;;;;;5073390;28;20662;-74
2023/05/25 12:08:54;;;;;;;6.93;5.07;;;31.80;31.60;;;;;;5061654;28;20548;-75
2023/05/25 12:11:28;;;;;;;7.38;4.70;;;32.20;29.10;;;;;;5073188;28;20644;-77
2023/05/25 12:13:55;;;;;;;7.47;4.88;;;31.60;29.10;;;;;;5073337;28;20196;-76
2023/05/25 12:16:22;;;;;;;8.65;4.72;;;28.60;31.50;;;;;;5073322;28;20274;-76
2023/05/25 12:18:49;;;;;;;7.20;4.40;;;29.10;31.50;;;;;;5073148;28;20220;-76
2023/05/25 12:21:16;;;;;;;10.13;4.95;;;30.80;31.70;;;;;;5072910;28;20243;-76
2023/05/25 12:23:42;;;;;;;6.85;4.57;;;31.80;30.60;;;;;;5073023;28;20607;-76
2023/05/25 12:26:12;;;;;;;7.47;4.70;;;32.80;29.40;;;;;;5072048;28;20193;-76
2023/05/25 12:28:39;;;;;;;7.85;4.70;;;33.50;27.80;;;;;;5072985;28;20201;-77
2023/05/25 12:31:21;;;;;;;7.22;4.40;;;33.00;27.80;;;;;;5072914;28;20292;-77
2023/05/25 12:34:03;;;;;;;7.63;5.15;;;33.20;27.00;;;;;;5072692;28;20279;-76
2023/05/25 12:36:46;;;;;;;8.52;4.95;;;33.50;26.30;;;;;;5073255;28;20246;-77
2023/05/25 12:39:14;;;;;;;7.65;4.88;;;33.90;26.50;;;;;;5073118;28;20227;-77
2023/05/25 12:41:53;;;;;;;6.43;4.55;;;34.10;26.60;;;;;;5072992;28;20242;-77
2023/05/25 12:44:22;;;;;;;6.53;4.30;;;34.20;25.80;;;;;;5072566;28;20204;-77
2023/05/25 12:46:49;;;;;;;7.25;4.35;;;34.90;25.70;;;;;;5073057;28;20230;-77
2023/05/25 12:49:30;;;;;;;7.10;4.30;;;34.80;24.20;;;;;;5073000;28;20200;-77